sensor_id;sensor_type;location;lat;lon;timestamp;pressure;altitude;pressure_sealevel;temperature;humidity
56414;BME280;42318;48.452;19.526;2023-05-01T00:05:38;98606.22;;;20.28;50.47
56414;BME280;42318;48.452;19.526;2023-05-01T00:13:09;98596.88;;;20.19;50.78
56414;BME280;42318;48.452;19.526;2023-05-01T00:20:40;98605.59;;;20.21;50.75
56414;BME280;42318;48.452;19.526;2023-05-01T00:28:11;98607.44;;;20.15;50.47
56414;BME280;42318;48.452;19.526;2023-05-01T00:35:45;98613.91;;;20.09;50.68
56414;BME280;42318;48.452;19.526;2023-05-01T00:43:16;98615.50;;;20.05;50.62
56414;BME280;42318;48.452;19.526;2023-05-01T00:50:47;98620.34;;;20.03;50.34
56414;BME280;42318;48.452;19.526;2023-05-01T00:58:18;98613.53;;;20.00;50.67
56414;BME280;42318;48.452;19.526;2023-05-01T01:14:10;98609.41;;;19.98;50.66
56414;BME280;42318;48.452;19.526;2023-05-01T01:21:45;98612.88;;;19.93;50.34
56414;BME280;42318;48.452;19.526;2023-05-01T01:37:01;98611.72;;;19.89;50.38
56414;BME280;42318;48.452;19.526;2023-05-01T01:44:38;98616.66;;;19.92;50.45
56414;BME280;42318;48.452;19.526;2023-05-01T01:52:12;98617.72;;;19.91;50.72
56414;BME280;42318;48.452;19.526;2023-05-01T01:59:45;98614.44;;;19.89;50.73
56414;BME280;42318;48.452;19.526;2023-05-01T02:07:17;98603.81;;;19.88;50.61
56414;BME280;42318;48.452;19.526;2023-05-01T02:14:50;98604.91;;;19.87;50.50
56414;BME280;42318;48.452;19.526;2023-05-01T02:22:22;98600.53;;;19.86;50.65
56414;BME280;42318;48.452;19.526;2023-05-01T02:29:55;98594.28;;;19.85;50.26
56414;BME280;42318;48.452;19.526;2023-05-01T02:37:27;98589.66;;;19.86;50.32
56414;BME280;42318;48.452;19.526;2023-05-01T02:45:06;98589.66;;;19.86;50.63
56414;BME280;42318;48.452;19.526;2023-05-01T02:52:38;98591.81;;;19.84;50.38
56414;BME280;42318;48.452;19.526;2023-05-01T03:00:10;98601.59;;;19.85;50.66
56414;BME280;42318;48.452;19.526;2023-05-01T03:07:43;98614.38;;;19.84;50.41
56414;BME280;42318;48.452;19.526;2023-05-01T03:15:14;98611.41;;;19.86;50.26
56414;BME280;42318;48.452;19.526;2023-05-01T03:22:44;98614.94;;;19.86;50.48
56414;BME280;42318;48.452;19.526;2023-05-01T03:30:15;98607.63;;;19.87;50.38
56414;BME280;42318;48.452;19.526;2023-05-01T03:37:46;98620.69;;;19.90;50.18
56414;BME280;42318;48.452;19.526;2023-05-01T03:45:17;98615.19;;;19.85;50.34
56414;BME280;42318;48.452;19.526;2023-05-01T03:52:48;98635.38;;;19.89;50.33
56414;BME280;42318;48.452;19.526;2023-05-01T04:00:18;98634.31;;;19.90;50.16
56414;BME280;42318;48.452;19.526;2023-05-01T04:07:49;98648.00;;;19.95;50.27
56414;BME280;42318;48.452;19.526;2023-05-01T04:15:20;98632.50;;;19.95;50.21
56414;BME280;42318;48.452;19.526;2023-05-01T04:22:52;98617.09;;;19.84;50.14
56414;BME280;42318;48.452;19.526;2023-05-01T04:30:22;98642.88;;;19.98;50.01
56414;BME280;42318;48.452;19.526;2023-05-01T04:37:53;98645.84;;;19.97;49.88
56414;BME280;42318;48.452;19.526;2023-05-01T04:45:24;98650.47;;;19.96;49.75
56414;BME280;42318;48.452;19.526;2023-05-01T04:52:55;98650.78;;;20.00;50.12
56414;BME280;42318;48.452;19.526;2023-05-01T05:00:26;98651.59;;;20.00;50.11
56414;BME280;42318;48.452;19.526;2023-05-01T05:07:57;98651.34;;;20.02;49.80
56414;BME280;42318;48.452;19.526;2023-05-01T05:15:28;98644.53;;;19.99;50.03
56414;BME280;42318;48.452;19.526;2023-05-01T05:22:59;98661.66;;;20.00;50.08
56414;BME280;42318;48.452;19.526;2023-05-01T05:30:30;98661.66;;;20.00;49.76
56414;BME280;42318;48.452;19.526;2023-05-01T05:38:01;98670.06;;;19.98;50.17
56414;BME280;42318;48.452;19.526;2023-05-01T05:45:33;98670.56;;;19.95;49.99
56414;BME280;42318;48.452;19.526;2023-05-01T05:53:04;98678.13;;;19.93;50.06
56414;BME280;42318;48.452;19.526;2023-05-01T06:00:34;98671.88;;;19.93;50.03
56414;BME280;42318;48.452;19.526;2023-05-01T06:08:05;98676.47;;;19.92;50.03
56414;BME280;42318;48.452;19.526;2023-05-01T06:15:36;98672.69;;;19.93;50.34
56414;BME280;42318;48.452;19.526;2023-05-01T06:23:07;98680.53;;;19.90;50.33
56414;BME280;42318;48.452;19.526;2023-05-01T06:30:39;98684.66;;;19.92;49.87
56414;BME280;42318;48.452;19.526;2023-05-01T06:38:10;98679.63;;;20.01;50.46
56414;BME280;42318;48.452;19.526;2023-05-01T06:45:41;98682.66;;;20.04;50.35
56414;BME280;42318;48.452;19.526;2023-05-01T06:53:12;98690.31;;;20.07;50.41
56414;BME280;42318;48.452;19.526;2023-05-01T07:00:43;98690.81;;;20.04;50.45
56414;BME280;42318;48.452;19.526;2023-05-01T07:08:14;98686.22;;;20.05;50.19
56414;BME280;42318;48.452;19.526;2023-05-01T07:15:44;98695.50;;;20.09;50.15
56414;BME280;42318;48.452;19.526;2023-05-01T07:23:15;98692.28;;;20.12;50.63
56414;BME280;42318;48.452;19.526;2023-05-01T07:30:46;98692.03;;;20.14;50.35
56414;BME280;42318;48.452;19.526;2023-05-01T07:38:17;98693.44;;;20.16;50.50
56414;BME280;42318;48.452;19.526;2023-05-01T07:45:58;98686.91;;;20.17;50.38
56414;BME280;42318;48.452;19.526;2023-05-01T07:53:30;98686.47;;;20.25;50.43
56414;BME280;42318;48.452;19.526;2023-05-01T08:01:02;98682.09;;;20.24;50.21
56414;BME280;42318;48.452;19.526;2023-05-01T08:08:33;98675.28;;;20.22;50.81
56414;BME280;42318;48.452;19.526;2023-05-01T08:16:04;98671.97;;;20.20;50.88
56414;BME280;42318;48.452;19.526;2023-05-01T08:23:35;98667.63;;;20.19;50.51
56414;BME280;42318;48.452;19.526;2023-05-01T08:31:05;98667.63;;;20.19;50.71
56414;BME280;42318;48.452;19.526;2023-05-01T08:38:36;98660.03;;;20.21;50.40
56414;BME280;42318;48.452;19.526;2023-05-01T08:46:08;98657.31;;;20.21;50.57
56414;BME280;42318;48.452;19.526;2023-05-01T08:53:41;98651.03;;;20.20;50.43
56414;BME280;42318;48.452;19.526;2023-05-01T09:01:17;98642.88;;;20.20;50.57
56414;BME280;42318;48.452;19.526;2023-05-01T09:08:48;98632.00;;;20.20;50.51
56414;BME280;42318;48.452;19.526;2023-05-01T09:16:19;98629.28;;;20.20;50.67
56414;BME280;42318;48.452;19.526;2023-05-01T09:23:51;98621.69;;;20.22;50.42
56414;BME280;42318;48.452;19.526;2023-05-01T09:31:24;98607.81;;;20.24;50.59
56414;BME280;42318;48.452;19.526;2023-05-01T09:38:55;98624.44;;;20.27;50.38
56414;BME280;42318;48.452;19.526;2023-05-01T09:46:26;98609.53;;;20.30;50.49
56414;BME280;42318;48.452;19.526;2023-05-01T09:54:01;98604.38;;;20.33;50.38
56414;BME280;42318;48.452;19.526;2023-05-01T10:01:41;98604.47;;;20.38;50.33
56414;BME280;42318;48.452;19.526;2023-05-01T10:09:25;98601.28;;;20.42;50.65
56414;BME280;42318;48.452;19.526;2023-05-01T10:16:56;98596.41;;;20.44;50.57
56414;BME280;42318;48.452;19.526;2023-05-01T10:24:27;98594.81;;;20.48;50.64
56414;BME280;42318;48.452;19.526;2023-05-01T10:31:59;98589.09;;;20.49;50.70
56414;BME280;42318;48.452;19.526;2023-05-01T10:39:34;98586.63;;;20.48;50.88
56414;BME280;42318;48.452;19.526;2023-05-01T11:10:53;98570.88;;;20.50;51.63
56414;BME280;42318;48.452;19.526;2023-05-01T11:18:44;98561.00;;;20.44;51.20
56414;BME280;42318;48.452;19.526;2023-05-01T11:26:16;98553.66;;;20.44;51.05
56414;BME280;42318;48.452;19.526;2023-05-01T11:33:47;98546.88;;;20.47;50.84
56414;BME280;42318;48.452;19.526;2023-05-01T11:41:19;98540.88;;;20.45;51.35
56414;BME280;42318;48.452;19.526;2023-05-01T11:49:00;98543.09;;;20.48;51.39
56414;BME280;42318;48.452;19.526;2023-05-01T11:56:32;98535.19;;;20.46;51.25
56414;BME280;42318;48.452;19.526;2023-05-01T12:04:04;98543.09;;;20.48;51.11
56414;BME280;42318;48.452;19.526;2023-05-01T12:11:38;98527.03;;;20.46;51.46
56414;BME280;42318;48.452;19.526;2023-05-01T12:19:12;98515.06;;;20.47;51.43
56414;BME280;42318;48.452;19.526;2023-05-01T12:26:44;98514.22;;;20.47;51.34
56414;BME280;42318;48.452;19.526;2023-05-01T12:34:15;98515.97;;;20.58;51.27
56414;BME280;42318;48.452;19.526;2023-05-01T12:41:47;98503.44;;;20.57;50.27
56414;BME280;42318;48.452;19.526;2023-05-01T12:49:19;98498.03;;;20.62;49.97
56414;BME280;42318;48.452;19.526;2023-05-01T12:56:50;98501.06;;;20.65;50.49
56414;BME280;42318;48.452;19.526;2023-05-01T13:04:25;98496.50;;;20.76;50.77
56414;BME280;42318;48.452;19.526;2023-05-01T13:11:58;98481.69;;;20.94;51.02
56414;BME280;42318;48.452;19.526;2023-05-01T13:19:29;98472.44;;;20.95;50.90
56414;BME280;42318;48.452;19.526;2023-05-01T13:27:01;98467.03;;;21.05;50.56
56414;BME280;42318;48.452;19.526;2023-05-01T13:34:33;98456.72;;;21.12;50.62
56414;BME280;42318;48.452;19.526;2023-05-01T13:42:04;98451.50;;;21.06;50.83
56414;BME280;42318;48.452;19.526;2023-05-01T13:49:40;98448.75;;;21.00;51.06
56414;BME280;42318;48.452;19.526;2023-05-01T13:57:11;98447.88;;;20.90;51.86
56414;BME280;42318;48.452;19.526;2023-05-01T14:04:42;98438.38;;;20.92;51.87
56414;BME280;42318;48.452;19.526;2023-05-01T14:12:17;98438.13;;;20.99;51.70
56414;BME280;42318;48.452;19.526;2023-05-01T14:19:51;98428.25;;;20.88;52.33
56414;BME280;42318;48.452;19.526;2023-05-01T14:27:22;98434.44;;;20.78;52.13
56414;BME280;42318;48.452;19.526;2023-05-01T14:34:52;98423.50;;;20.73;52.15
56414;BME280;42318;48.452;19.526;2023-05-01T14:42:23;98427.91;;;20.79;51.85
56414;BME280;42318;48.452;19.526;2023-05-01T14:49:54;98413.97;;;20.70;52.25
56414;BME280;42318;48.452;19.526;2023-05-01T14:57:25;98409.59;;;20.69;51.89
56414;BME280;42318;48.452;19.526;2023-05-01T15:04:56;98410.16;;;20.72;51.84
56414;BME280;42318;48.452;19.526;2023-05-01T15:12:27;98405.66;;;20.87;51.88
56414;BME280;42318;48.452;19.526;2023-05-01T15:19:58;98387.47;;;20.98;51.47
56414;BME280;42318;48.452;19.526;2023-05-01T15:27:29;98392.06;;;20.92;51.71
56414;BME280;42318;48.452;19.526;2023-05-01T15:35:02;98387.97;;;20.90;52.04
56414;BME280;42318;48.452;19.526;2023-05-01T15:42:33;98381.41;;;20.86;51.99
56414;BME280;42318;48.452;19.526;2023-05-01T15:50:08;98375.66;;;20.82;52.37
56414;BME280;42318;48.452;19.526;2023-05-01T15:57:40;98371.03;;;20.83;52.38
56414;BME280;42318;48.452;19.526;2023-05-01T16:05:18;98371.88;;;20.83;52.30
56414;BME280;42318;48.452;19.526;2023-05-01T16:12:54;98382.75;;;20.83;52.84
56414;BME280;42318;48.452;19.526;2023-05-01T16:20:27;98369.91;;;20.79;52.28
56414;BME280;42318;48.452;19.526;2023-05-01T16:28:05;98368.88;;;20.85;52.11
56414;BME280;42318;48.452;19.526;2023-05-01T16:35:36;98368.63;;;20.86;52.26
56414;BME280;42318;48.452;19.526;2023-05-01T16:43:08;98362.59;;;20.84;52.42
56414;BME280;42318;48.452;19.526;2023-05-01T16:50:40;98361.22;;;20.82;52.51
56414;BME280;42318;48.452;19.526;2023-05-01T16:58:11;98370.25;;;20.87;52.12
56414;BME280;42318;48.452;19.526;2023-05-01T17:05:41;98381.69;;;20.89;51.94
56414;BME280;42318;48.452;19.526;2023-05-01T17:13:12;98371.63;;;20.90;51.89
56414;BME280;42318;48.452;19.526;2023-05-01T17:20:45;98370.81;;;20.89;51.82
56414;BME280;42318;48.452;19.526;2023-05-01T17:28:16;98372.44;;;20.90;51.92
56414;BME280;42318;48.452;19.526;2023-05-01T17:35:48;98367.53;;;20.87;51.60
56414;BME280;42318;48.452;19.526;2023-05-01T17:43:19;98361.84;;;20.94;51.91
56414;BME280;42318;48.452;19.526;2023-05-01T17:50:50;98373.53;;;20.89;51.71
56414;BME280;42318;48.452;19.526;2023-05-01T17:58:21;98381.69;;;20.89;51.81
56414;BME280;42318;48.452;19.526;2023-05-01T18:05:51;98389.06;;;20.89;51.80
56414;BME280;42318;48.452;19.526;2023-05-01T18:13:22;98392.06;;;20.92;52.02
56414;BME280;42318;48.452;19.526;2023-05-01T18:20:58;98395.59;;;20.93;52.00
56414;BME280;42318;48.452;19.526;2023-05-01T18:28:29;98404.00;;;20.86;50.96
56414;BME280;42318;48.452;19.526;2023-05-01T18:36:01;98402.94;;;20.87;51.14
56414;BME280;42318;48.452;19.526;2023-05-01T18:43:31;98410.28;;;20.87;51.36
56414;BME280;42318;48.452;19.526;2023-05-01T18:51:02;98413.56;;;20.89;51.34
56414;BME280;42318;48.452;19.526;2023-05-01T18:58:34;98422.00;;;20.87;51.48
56414;BME280;42318;48.452;19.526;2023-05-01T19:06:04;98419.53;;;20.86;51.41
56414;BME280;42318;48.452;19.526;2023-05-01T19:13:39;98427.69;;;20.86;51.38
56414;BME280;42318;48.452;19.526;2023-05-01T19:21:10;98423.59;;;20.83;51.83
56414;BME280;42318;48.452;19.526;2023-05-01T19:28:41;98433.16;;;20.86;51.61
56414;BME280;42318;48.452;19.526;2023-05-01T19:36:12;98426.88;;;20.85;51.27
56414;BME280;42318;48.452;19.526;2023-05-01T19:43:43;98430.44;;;20.86;51.59
56414;BME280;42318;48.452;19.526;2023-05-01T19:51:14;98430.94;;;20.83;51.28
56414;BME280;42318;48.452;19.526;2023-05-01T19:58:45;98432.28;;;20.80;51.45
56414;BME280;42318;48.452;19.526;2023-05-01T20:06:16;98430.63;;;20.79;51.55
56414;BME280;42318;48.452;19.526;2023-05-01T20:13:47;98426.81;;;20.80;51.20
56414;BME280;42318;48.452;19.526;2023-05-01T20:21:18;98432.03;;;20.82;51.37
56414;BME280;42318;48.452;19.526;2023-05-01T20:28:48;98429.06;;;20.83;51.29
56414;BME280;42318;48.452;19.526;2023-05-01T20:36:20;98417.63;;;20.86;51.06
56414;BME280;42318;48.452;19.526;2023-05-01T20:43:51;98433.72;;;20.88;51.14
56414;BME280;42318;48.452;19.526;2023-05-01T20:51:22;98437.25;;;20.88;50.89
56414;BME280;42318;48.452;19.526;2023-05-01T20:58:52;98443.78;;;20.87;51.13
56414;BME280;42318;48.452;19.526;2023-05-01T21:06:24;98439.69;;;20.85;51.16
56414;BME280;42318;48.452;19.526;2023-05-01T21:13:56;98445.38;;;20.83;50.81
56414;BME280;42318;48.452;19.526;2023-05-01T21:21:27;98455.47;;;20.83;51.11
56414;BME280;42318;48.452;19.526;2023-05-01T21:28:58;98463.38;;;20.84;51.17
56414;BME280;42318;48.452;19.526;2023-05-01T21:36:29;98459.00;;;20.83;50.93
56414;BME280;42318;48.452;19.526;2023-05-01T21:44:03;98467.75;;;20.90;50.69
56414;BME280;42318;48.452;19.526;2023-05-01T21:51:34;98473.22;;;20.90;50.62
56414;BME280;42318;48.452;19.526;2023-05-01T21:59:05;98468.31;;;20.92;50.66
56414;BME280;42318;48.452;19.526;2023-05-01T22:06:36;98472.13;;;20.91;50.25
56414;BME280;42318;48.452;19.526;2023-05-01T22:14:06;98478.66;;;20.90;50.70
56414;BME280;42318;48.452;19.526;2023-05-01T22:21:37;98479.75;;;20.89;50.66
56414;BME280;42318;48.452;19.526;2023-05-01T22:29:08;98479.19;;;20.87;50.86
56414;BME280;42318;48.452;19.526;2023-05-01T22:36:40;98485.72;;;20.86;50.65
56414;BME280;42318;48.452;19.526;2023-05-01T22:44:11;98481.28;;;20.80;50.82
56414;BME280;42318;48.452;19.526;2023-05-01T22:51:42;98478.31;;;20.82;50.72
56414;BME280;42318;48.452;19.526;2023-05-01T22:59:12;98469.34;;;20.81;50.72
56414;BME280;42318;48.452;19.526;2023-05-01T23:06:43;98463.31;;;20.79;50.64
56414;BME280;42318;48.452;19.526;2023-05-01T23:14:17;98461.16;;;20.81;50.38
56414;BME280;42318;48.452;19.526;2023-05-01T23:21:49;98460.31;;;20.81;50.61
56414;BME280;42318;48.452;19.526;2023-05-01T23:29:20;98458.69;;;20.80;50.42
56414;BME280;42318;48.452;19.526;2023-05-01T23:36:51;98458.94;;;20.78;50.47
56414;BME280;42318;48.452;19.526;2023-05-01T23:44:22;98461.66;;;20.78;50.58
56414;BME280;42318;48.452;19.526;2023-05-01T23:51:52;98463.81;;;20.76;50.62
56414;BME280;42318;48.452;19.526;2023-05-01T23:59:24;98464.34;;;20.73;50.59
